Time;durP1;ratioP1;P1;durP2;ratioP2;P2;SDS_P1;SDS_P2;PMS_P1;PMS_P2;Temp;Humidity;BMP_temperature;BMP_pressure;BME280_temperature;BME280_humidity;BME280_pressure;Samples;Min_cycle;Max_cycle;Signal;HPM_P1;HPM_P2
2022/12/14 00:01:21;;;;;;;4.87;2.83;;;;;;;-8.02;73.13;95340.35;1832323;78;21508;-71
2022/12/14 00:03:49;;;;;;;5.17;3.20;;;;;;;-8.06;73.19;95332.53;1832398;78;20996;-71
2022/12/14 00:06:28;;;;;;;4.30;2.87;;;;;;;-7.99;73.49;95336.24;1832185;78;20999;-71
2022/12/14 00:08:58;;;;;;;5.00;3.07;;;;;;;-8.01;73.35;95343.37;1832348;78;20988;-71
2022/12/14 00:11:26;;;;;;;7.27;2.47;;;;;;;-7.96;73.47;95340.62;1832287;78;21012;-71
2022/12/14 00:13:56;;;;;;;5.03;2.63;;;;;;;-8.11;72.58;95345.52;1832425;78;20991;-71
2022/12/14 00:16:24;;;;;;;3.93;2.50;;;;;;;-8.21;72.97;95341.14;1831422;78;21543;-71
2022/12/14 00:18:53;;;;;;;3.27;1.97;;;;;;;-8.22;73.27;95340.27;1832369;78;21011;-71
2022/12/14 00:21:20;;;;;;;5.80;2.30;;;;;;;-8.19;73.28;95339.54;1832246;78;20983;-71
2022/12/14 00:23:50;;;;;;;4.00;2.10;;;;;;;-8.23;73.38;95340.22;1832495;78;20987;-71
2022/12/14 00:26:21;;;;;;;9.23;3.20;;;;;;;-8.21;73.35;95340.77;1832321;78;21031;-71
2022/12/14 00:28:51;;;;;;;4.07;2.23;;;;;;;-8.28;72.94;95349.81;1832351;78;20987;-71
2022/12/14 00:31:18;;;;;;;3.77;1.90;;;;;;;-8.35;73.29;95346.88;1832254;78;21062;-71
2022/12/14 00:33:45;;;;;;;3.03;1.50;;;;;;;-8.37;73.25;95345.52;1832304;78;21022;-71
2022/12/14 00:36:13;;;;;;;3.30;1.37;;;;;;;-8.43;73.20;95344.39;1832202;78;21493;-71
2022/12/14 00:38:41;;;;;;;2.70;1.60;;;;;;;-8.59;73.87;95347.48;1832230;78;21007;-71
2022/12/14 00:41:09;;;;;;;2.47;1.37;;;;;;;-8.58;74.38;95342.83;1832065;78;20987;-71
2022/12/14 00:43:35;;;;;;;3.77;2.20;;;;;;;-8.55;74.01;95336.98;1832352;78;20987;-71
2022/12/14 00:46:02;;;;;;;9.37;4.37;;;;;;;-8.69;75.17;95337.59;1834604;78;21070;-71
2022/12/14 00:48:29;;;;;;;16.43;7.07;;;;;;;-8.77;75.81;95346.16;1835217;78;20983;-71
2022/12/14 00:50:56;;;;;;;4.27;2.10;;;;;;;-8.83;76.31;95340.72;1835168;78;21615;-71
2022/12/14 00:53:24;;;;;;;2.77;1.90;;;;;;;-8.80;75.82;95343.83;1835158;78;21011;-71
2022/12/14 00:55:51;;;;;;;4.30;1.90;;;;;;;-8.73;75.68;95329.28;1835151;78;21047;-71
2022/12/14 00:58:21;;;;;;;7.53;3.97;;;;;;;-8.65;75.60;95336.05;1835227;78;21437;-71
2022/12/14 01:01:04;;;;;;;5.63;2.10;;;;;;;-8.53;75.86;95338.81;1835142;78;20999;-72
2022/12/14 01:03:31;;;;;;;2.90;1.50;;;;;;;-8.56;75.40;95337.39;1835428;78;20991;-71
2022/12/14 01:05:58;;;;;;;2.50;1.60;;;;;;;-8.45;75.33;95338.31;1835019;78;20991;-71
2022/12/14 01:08:25;;;;;;;4.87;1.70;;;;;;;-8.46;74.68;95341.28;1835197;78;20992;-71
2022/12/14 01:10:52;;;;;;;4.07;2.13;;;;;;;-8.47;74.88;95340.79;1835188;78;20975;-71
2022/12/14 01:13:18;;;;;;;16.63;8.03;;;;;;;-8.57;75.47;95343.70;1835237;78;20984;-71
2022/12/14 01:15:45;;;;;;;18.43;8.23;;;;;;;-8.59;76.27;95335.06;1835233;78;21042;-72
2022/12/14 01:18:12;;;;;;;19.13;9.37;;;;;;;-8.51;76.01;95337.63;1835212;78;20991;-71
2022/12/14 01:20:39;;;;;;;15.83;6.67;;;;;;;-8.54;75.88;95331.95;1835205;78;20976;-71
2022/12/14 01:23:05;;;;;;;10.23;4.20;;;;;;;-8.60;75.10;95341.86;1835094;78;20984;-71
2022/12/14 01:25:32;;;;;;;8.40;4.10;;;;;;;-8.66;74.86;95341.98;1835280;78;21008;-71
2022/12/14 01:27:58;;;;;;;7.87;4.37;;;;;;;-8.59;75.35;95337.63;1835270;78;20976;-72
2022/12/14 01:30:24;;;;;;;10.47;4.80;;;;;;;-8.61;74.95;95335.01;1802123;78;21059;-72
2022/12/14 01:32:51;;;;;;;8.37;4.10;;;;;;;-8.72;75.28;95337.04;1835413;78;21445;-71
2022/12/14 01:35:17;;;;;;;11.37;4.70;;;;;;;-8.72;75.46;95342.16;1835168;78;21019;-71
2022/12/14 01:37:44;;;;;;;9.57;4.73;;;;;;;-8.69;76.22;95345.27;1835172;78;20952;-71
2022/12/14 01:40:11;;;;;;;9.07;4.13;;;;;;;-8.60;76.27;95348.67;1835147;78;21031;-71
2022/12/14 01:42:38;;;;;;;6.53;2.73;;;;;;;-8.64;75.97;95346.75;1835221;78;20987;-71
2022/12/14 01:45:08;;;;;;;7.27;3.50;;;;;;;-8.69;75.95;95343.98;1836405;78;20976;-72
2022/12/14 01:47:42;;;;;;;5.83;3.10;;;;;;;-8.74;75.56;95345.03;1809178;78;21532;-71
2022/12/14 01:50:29;;;;;;;5.13;2.67;;;;;;;-8.63;76.08;95337.02;1840757;78;20991;-72
2022/12/14 01:53:06;;;;;;;2.30;1.37;;;;;;;-8.55;75.80;95339.54;1840662;78;21055;-71
2022/12/14 01:55:41;;;;;;;6.83;1.47;;;;;;;-8.57;75.29;95334.34;1839526;78;21015;-71
2022/12/14 01:58:18;;;;;;;3.93;1.63;;;;;;;-8.59;75.61;95329.57;1840734;78;21050;-71
2022/12/14 02:00:44;;;;;;;2.20;1.40;;;;;;;-8.55;75.36;95323.78;1840795;78;21050;-71
2022/12/14 02:03:22;;;;;;;7.53;2.60;;;;;;;-8.60;75.75;95327.80;1840628;78;21034;-72
2022/12/14 02:06:02;;;;;;;8.17;4.03;;;;;;;-8.59;76.20;95314.59;1840792;78;21507;-71
2022/12/14 02:08:29;;;;;;;11.17;5.00;;;;;;;-8.64;75.97;95316.96;1840717;78;21018;-71
2022/12/14 02:10:57;;;;;;;21.73;8.53;;;;;;;-8.58;76.13;95321.49;1840617;78;21480;-71
2022/12/14 02:13:31;;;;;;;26.90;11.77;;;;;;;-8.54;76.11;95316.98;1840692;78;21121;-71
2022/12/14 02:15:57;;;;;;;27.43;11.70;;;;;;;-8.58;76.12;95317.66;1840838;78;21078;-71
2022/12/14 02:18:27;;;;;;;29.50;12.20;;;;;;;-8.46;76.56;95314.42;1840840;78;21465;-71
2022/12/14 02:21:20;;;;;;;14.13;4.97;;;;;;;-8.47;75.49;95312.65;1840797;78;21588;-71
2022/12/14 02:24:06;;;;;;;4.13;2.00;;;;;;;-8.42;75.60;95309.04;1840823;78;21015;-71
2022/12/14 02:27:04;;;;;;;2.77;1.30;;;;;;;-8.42;75.29;95309.91;1840788;78;21509;-71
2022/12/14 02:29:51;;;;;;;1.73;1.20;;;;;;;-8.42;75.53;95302.64;1840919;78;21449;-71
2022/12/14 02:33:00;;;;;;;4.37;1.77;;;;;;;-8.40;75.14;95307.44;1840888;78;21492;-71
2022/12/14 02:36:02;;;;;;;13.30;5.10;;;;;;;-8.47;75.70;95299.86;1840887;78;21523;-71
2022/12/14 02:39:05;;;;;;;11.33;5.53;;;;;;;-8.56;75.58;95300.30;1840611;78;21023;-71
2022/12/14 02:42:05;;;;;;;18.65;8.43;;;;;;;-8.57;76.52;95299.80;1840999;78;20936;-71
2022/12/14 02:44:46;;;;;;;19.57;7.73;;;;;;;-8.57;76.71;95295.09;1762678;78;21051;-71
2022/12/14 02:47:25;;;;;;;16.53;7.43;;;;;;;-8.40;76.92;95292.95;1840742;78;20980;-71
2022/12/14 02:50:09;;;;;;;23.07;10.27;;;;;;;-8.34;75.96;95293.23;1840686;78;21041;-71
2022/12/14 02:53:09;;;;;;;30.93;14.27;;;;;;;-8.35;75.49;95299.14;1839722;78;21480;-71
2022/12/14 02:55:52;;;;;;;36.10;16.23;;;;;;;-8.37;75.92;95294.34;1840641;78;21349;-71
2022/12/14 02:58:36;;;;;;;35.17;15.03;;;;;;;-8.30;76.13;95292.56;1841027;78;20991;-71
2022/12/14 03:01:04;;;;;;;26.90;11.17;;;;;;;-8.19;76.22;95295.65;1840995;78;21641;-71
2022/12/14 03:03:30;;;;;;;24.60;11.07;;;;;;;-8.07;75.80;95297.48;1840667;78;20983;-71
2022/12/14 03:06:13;;;;;;;22.13;9.70;;;;;;;-8.04;75.21;95289.06;1840643;78;21066;-71
2022/12/14 03:08:34;;;;;;;23.10;9.43;;;;;;;-8.08;74.99;95288.06;1838683;78;21054;-71
2022/12/14 03:11:05;;;;;;;10.70;4.93;;;;;;;-8.18;74.64;95285.00;1840649;78;21003;-71
2022/12/14 03:13:49;;;;;;;15.23;5.23;;;;;;;-8.29;74.72;95279.35;1840596;78;21030;-71
2022/12/14 03:16:29;;;;;;;16.93;8.70;;;;;;;-8.35;75.04;95268.84;1840655;78;20995;-71
2022/12/14 03:19:14;;;;;;;20.03;8.03;;;;;;;-8.45;75.13;95273.08;1840686;78;21019;-71
2022/12/14 03:21:46;;;;;;;22.47;11.40;;;;;;;-8.50;75.49;95269.89;1840605;78;21051;-71
2022/12/14 03:24:18;;;;;;;42.60;17.10;;;;;;;-8.54;75.59;95274.40;1838835;78;20984;-71
2022/12/14 03:26:54;;;;;;;20.90;10.48;;;;;;;-8.63;76.83;95278.19;1840964;78;21011;-71
2022/12/14 03:29:26;;;;;;;45.47;18.10;;;;;;;-8.57;76.41;95288.70;1839513;78;21007;-71
2022/12/14 03:32:12;;;;;;;41.93;17.77;;;;;;;-8.59;76.84;95286.47;1840844;78;21039;-71
2022/12/14 03:34:47;;;;;;;13.97;7.47;;;;;;;-8.61;77.49;95278.73;1840699;78;21042;-71
2022/12/14 03:37:46;;;;;;;13.70;6.53;;;;;;;-8.53;77.56;95287.66;1840806;78;21015;-71
2022/12/14 03:40:14;;;;;;;30.03;12.70;;;;;;;-8.45;76.92;95277.78;1840742;78;21528;-71
2022/12/14 03:42:58;;;;;;;28.83;12.20;;;;;;;-8.43;76.74;95287.70;1840642;78;21095;-71
2022/12/14 03:45:54;;;;;;;18.87;8.90;;;;;;;-8.35;77.12;95277.80;1839353;78;20999;-71
2022/12/14 03:48:30;;;;;;;11.10;5.80;;;;;;;-8.25;77.11;95273.59;1831297;78;21489;-71
2022/12/14 03:51:08;;;;;;;21.70;11.57;;;;;;;-8.17;76.82;95273.95;1831598;78;21005;-71
2022/12/14 03:53:52;;;;;;;22.80;10.77;;;;;;;-8.17;76.32;95281.63;1830045;78;20981;-71
2022/12/14 03:56:42;;;;;;;23.03;10.73;;;;;;;-8.33;75.88;95274.50;1831439;78;21004;-71
2022/12/14 03:59:26;;;;;;;28.57;13.67;;;;;;;-8.44;76.65;95277.38;1831425;78;21051;-71
2022/12/14 04:01:56;;;;;;;;;;;;;;;-8.54;77.41;95274.77;1833435;78;20968;-71
2022/12/14 04:04:46;;;;;;;17.63;9.00;;;;;;;-8.61;76.62;95274.90;1831590;78;20138;-71
2022/12/14 04:07:26;;;;;;;15.00;8.10;;;;;;;-8.68;76.77;95274.53;1831524;78;21051;-71
2022/12/14 04:18:55;;;;;;;13.07;6.77;;;;;;;-8.73;77.67;95278.14;1830993;78;20992;-71
2022/12/14 04:21:14;;;;;;;21.73;8.47;;;;;;;-8.85;76.86;95278.40;1831703;78;20984;-71
2022/12/14 04:26:36;;;;;;;24.67;13.37;;;;;;;-8.91;76.90;95264.05;1831843;78;21215;-71
2022/12/14 04:32:18;;;;;;;51.43;19.90;;;;;;;-8.84;76.74;95258.44;1717575;83;21042;-71
2022/12/14 04:34:50;;;;;;;16.67;8.97;;;;;;;-8.89;77.50;95261.55;1717621;83;21602;-71
2022/12/14 04:37:20;;;;;;;16.33;6.33;;;;;;;-8.83;77.47;95260.59;1779078;78;21066;-71
2022/12/14 04:40:13;;;;;;;28.43;12.73;;;;;;;-8.90;76.55;95259.39;1831716;78;21059;-71
2022/12/14 04:42:45;;;;;;;34.00;15.00;;;;;;;-8.95;76.72;95255.73;1831829;78;21545;-71
2022/12/14 04:45:20;;;;;;;13.83;6.27;;;;;;;-8.90;76.81;95253.41;1826994;78;21553;-71
2022/12/14 04:48:10;;;;;;;14.53;6.67;;;;;;;-8.87;76.72;95249.31;1835146;78;21500;-71
2022/12/14 04:50:57;;;;;;;39.07;18.53;;;;;;;-8.99;76.81;95255.13;1833926;78;21035;-71
2022/12/14 04:53:27;;;;;;;40.13;17.03;;;;;;;-9.06;77.57;95253.06;1834413;78;21513;-71
2022/12/14 04:56:15;;;;;;;50.20;20.53;;;;;;;-9.17;77.74;95255.96;1835127;78;21086;-71
2022/12/14 04:58:42;;;;;;;38.43;15.83;;;;;;;-9.13;78.19;95260.81;1835161;78;21007;-71
2022/12/14 05:01:26;;;;;;;24.60;10.27;;;;;;;-9.02;77.96;95265.17;1835146;78;21019;-71
2022/12/14 05:04:19;;;;;;;35.03;15.30;;;;;;;-8.95;77.59;95258.30;1833821;78;21055;-73
2022/12/14 05:07:03;;;;;;;28.75;11.30;;;;;;;-8.95;77.07;95268.52;1835207;78;21824;-73
2022/12/14 05:09:39;;;;;;;;;;;;;;;-8.99;77.10;95266.63;1837949;78;21071;-73
2022/12/14 05:12:29;;;;;;;39.93;16.80;;;;;;;-9.01;77.32;95262.70;1835156;78;20097;-73
2022/12/14 05:15:09;;;;;;;35.57;13.50;;;;;;;-9.00;77.43;95261.02;1835309;78;21062;-73
2022/12/14 05:17:38;;;;;;;22.57;9.17;;;;;;;-8.90;78.46;95249.17;1835241;78;21011;-73
2022/12/14 05:20:14;;;;;;;27.77;10.77;;;;;;;-8.69;78.73;95250.64;1835119;78;21046;-73
2022/12/14 05:22:41;;;;;;;15.07;8.33;;;;;;;-8.54;78.46;95247.91;1835012;78;21012;-73
2022/12/14 05:25:08;;;;;;;18.10;8.30;;;;;;;-8.43;77.67;95249.73;1835192;78;21497;-73
2022/12/14 05:27:35;;;;;;;35.53;19.57;;;;;;;-8.46;77.10;95249.19;1835254;78;20999;-73
2022/12/14 05:30:02;;;;;;;33.50;17.57;;;;;;;-8.44;77.08;95255.63;1835349;78;21007;-71
2022/12/14 05:32:28;;;;;;;24.87;11.03;;;;;;;-8.41;77.33;95256.67;1835177;78;21032;-71
2022/12/14 05:34:55;;;;;;;32.90;16.73;;;;;;;-8.33;77.87;95257.00;1835133;78;21051;-71
2022/12/14 05:37:22;;;;;;;29.53;15.73;;;;;;;-8.22;77.69;95258.37;1835251;78;21464;-71
2022/12/14 05:39:48;;;;;;;16.70;9.50;;;;;;;-8.09;77.86;95267.12;1835100;78;21036;-71
2022/12/14 05:42:15;;;;;;;20.90;12.30;;;;;;;-7.99;77.54;95260.71;1835157;78;21043;-72
2022/12/14 05:44:42;;;;;;;8.87;5.03;;;;;;;-7.87;77.80;95252.31;1835300;78;21449;-71
2022/12/14 05:47:09;;;;;;;11.23;6.60;;;;;;;-7.72;77.64;95243.58;1838544;78;21058;-72
2022/12/14 05:49:36;;;;;;;10.90;5.77;;;;;;;-7.70;75.96;95250.94;1840358;78;20999;-71
2022/12/14 05:52:03;;;;;;;23.87;12.33;;;;;;;-7.79;75.71;95236.42;1840506;78;21007;-69
2022/12/14 05:54:29;;;;;;;34.63;19.63;;;;;;;-7.87;75.52;95239.92;1840490;78;21027;-75
2022/12/14 05:56:56;;;;;;;32.27;16.73;;;;;;;-7.94;75.70;95251.97;1840817;78;21000;-78
2022/12/14 05:59:23;;;;;;;23.53;13.00;;;;;;;-7.91;76.28;95261.06;1840760;78;21007;-73
2022/12/14 06:01:50;;;;;;;17.40;10.53;;;;;;;-7.85;76.86;95258.39;1840447;78;21045;-72
2022/12/14 06:04:18;;;;;;;16.77;9.63;;;;;;;-7.68;77.26;95238.67;1840540;78;21098;-75
2022/12/14 06:06:45;;;;;;;12.33;7.70;;;;;;;-7.54;77.00;95237.98;1840549;78;21011;-74
2022/12/14 06:09:17;;;;;;;15.00;7.70;;;;;;;-7.45;76.27;95234.55;1840135;78;21441;-71
2022/12/14 06:11:45;;;;;;;37.33;12.67;;;;;;;-7.41;75.87;95236.45;1840515;78;21087;-70
2022/12/14 06:14:13;;;;;;;51.67;22.43;;;;;;;-7.49;75.37;95235.22;1840688;78;21030;-77
2022/12/14 06:16:42;;;;;;;72.67;26.93;;;;;;;-7.65;75.77;95232.80;1840141;78;21114;-70
2022/12/14 06:19:11;;;;;;;67.33;23.47;;;;;;;-7.66;76.37;95224.63;1840258;78;21019;-79
2022/12/14 06:21:40;;;;;;;32.47;13.87;;;;;;;-7.71;76.60;95224.45;1835281;78;21077;-75
2022/12/14 06:24:10;;;;;;;47.53;17.60;;;;;;;-7.63;77.00;95223.09;1809355;78;20995;-77
2022/12/14 06:26:39;;;;;;;37.10;16.30;;;;;;;-7.55;76.93;95219.59;1828200;78;21030;-75
2022/12/14 06:29:09;;;;;;;55.13;25.07;;;;;;;-7.49;76.68;95221.53;1824610;78;20997;-72
2022/12/14 06:31:37;;;;;;;38.60;14.90;;;;;;;-7.46;76.48;95226.41;1827019;78;20992;-73
2022/12/14 06:34:03;;;;;;;35.33;16.97;;;;;;;-7.35;76.95;95229.43;1832678;78;20998;-74
2022/12/14 06:36:34;;;;;;;29.23;16.70;;;;;;;-7.24;77.37;95228.59;1827821;78;20989;-69
2022/12/14 06:39:05;;;;;;;30.33;12.13;;;;;;;-7.14;77.39;95228.59;1810308;77;21449;-73
2022/12/14 06:41:32;;;;;;;49.63;18.77;;;;;;;-7.06;77.13;95228.50;1822781;77;21002;-68
2022/12/14 06:44:05;;;;;;;48.03;21.87;;;;;;;-7.09;76.72;95229.66;1827204;78;21057;-76
2022/12/14 06:46:33;;;;;;;53.43;25.40;;;;;;;-7.14;76.57;95233.30;1825763;78;21507;-78
2022/12/14 06:49:00;;;;;;;34.27;18.63;;;;;;;-7.13;76.89;95226.10;1821131;78;21509;-73
2022/12/14 06:51:27;;;;;;;54.43;26.13;;;;;;;-7.08;76.92;95229.73;1827170;77;20944;-79
2022/12/14 06:53:56;;;;;;;27.97;13.43;;;;;;;-7.07;76.50;95228.05;1782914;77;21479;-74
2022/12/14 06:56:27;;;;;;;13.87;8.87;;;;;;;-7.02;76.53;95234.23;1745974;82;21520;-74
2022/12/14 06:58:55;;;;;;;17.30;9.47;;;;;;;-6.93;76.50;95229.89;1745765;82;21511;-75
2022/12/14 07:01:24;;;;;;;18.63;8.90;;;;;;;-6.83;76.76;95235.87;1745709;82;21066;-72
2022/12/14 07:03:54;;;;;;;16.27;7.37;;;;;;;-6.75;76.49;95233.23;1744902;82;21569;-68
2022/12/14 07:06:23;;;;;;;17.23;8.83;;;;;;;-6.60;76.41;95235.52;1746690;81;21053;-75
2022/12/14 07:08:56;;;;;;;20.30;10.50;;;;;;;-6.63;75.77;95234.98;1756079;81;21559;-67
2022/12/14 07:11:24;;;;;;;32.78;14.35;;;;;;;-6.61;76.07;95246.20;1756773;82;21540;-66
2022/12/14 07:13:51;;;;;;;31.00;15.63;;;;;;;-6.58;76.41;95243.75;1756517;82;21019;-67
2022/12/14 07:16:25;;;;;;;34.37;16.27;;;;;;;-6.53;76.85;95238.81;1756538;82;20986;-67
2022/12/14 07:18:53;;;;;;;31.00;15.63;;;;;;;-6.44;76.76;95240.89;1756321;82;21031;-71
2022/12/14 07:21:23;;;;;;;31.63;15.63;;;;;;;-6.39;76.44;95246.67;1756594;82;21074;-67
2022/12/14 07:23:51;;;;;;;23.23;11.07;;;;;;;-6.29;76.57;95244.48;1755994;82;21061;-66
2022/12/14 07:26:22;;;;;;;40.97;18.10;;;;;;;-6.42;76.35;95246.55;1756527;81;21031;-70
2022/12/14 07:28:50;;;;;;;33.57;15.07;;;;;;;-6.40;76.60;95242.74;1756479;82;21559;-66
2022/12/14 07:31:23;;;;;;;16.03;8.13;;;;;;;-6.39;76.94;95241.53;1756547;81;20975;-69
2022/12/14 07:33:55;;;;;;;17.47;9.70;;;;;;;-6.32;76.66;95243.53;1759468;81;21032;-66
2022/12/14 07:36:24;;;;;;;17.43;9.10;;;;;;;-6.27;76.13;95243.72;1755242;81;21081;-68
2022/12/14 07:38:52;;;;;;;64.70;36.40;;;;;;;-6.19;76.28;95252.59;1755112;81;21031;-69
2022/12/14 07:41:26;;;;;;;16.43;8.60;;;;;;;-6.07;76.38;95251.30;1756193;82;20956;-68
2022/12/14 07:43:55;;;;;;;13.37;7.57;;;;;;;-5.98;75.45;95240.11;1755679;82;21054;-68
2022/12/14 07:46:27;;;;;;;15.13;8.17;;;;;;;-5.88;75.69;95236.63;1756068;81;21062;-68
2022/12/14 07:48:56;;;;;;;22.15;12.25;;;;;;;-5.81;74.99;95227.47;1750904;81;21027;-66
2022/12/14 07:51:35;;;;;;;13.60;8.00;;;;;;;-5.76;75.30;95229.80;1751161;81;20992;-68
2022/12/14 07:54:05;;;;;;;13.07;7.60;;;;;;;-5.74;74.87;95222.16;1750954;81;20983;-69
2022/12/14 07:56:35;;;;;;;14.73;7.63;;;;;;;-5.68;74.83;95221.09;1751243;81;21087;-67
2022/12/14 07:59:07;;;;;;;18.23;11.00;;;;;;;-5.58;75.10;95205.60;1751074;81;21027;-66
2022/12/14 08:01:36;;;;;;;15.78;9.10;;;;;;;-5.63;73.41;95195.15;1750856;81;21532;-66
2022/12/14 08:04:13;;;;;;;14.17;8.07;;;;;;;-5.59;74.13;95186.74;1750156;81;21536;-66
2022/12/14 08:06:40;;;;;;;15.27;8.50;;;;;;;-5.55;74.52;95183.86;1750022;81;21192;-66
2022/12/14 08:09:09;;;;;;;21.27;11.23;;;;;;;-5.51;73.87;95184.03;1749877;82;21082;-68
2022/12/14 08:11:35;;;;;;;12.87;7.10;;;;;;;-5.45;73.60;95182.08;1750763;81;21069;-67
2022/12/14 08:14:06;;;;;;;13.70;7.83;;;;;;;-5.37;74.27;95178.48;1750552;81;20988;-67
2022/12/14 08:16:33;;;;;;;14.27;7.97;;;;;;;-5.27;73.98;95184.41;1750999;81;21090;-66
2022/12/14 08:19:01;;;;;;;16.20;10.97;;;;;;;-5.18;74.66;95184.75;1750692;81;21501;-64
2022/12/14 08:21:28;;;;;;;16.97;10.63;;;;;;;-5.08;74.35;95197.09;1750678;81;21146;-66
2022/12/14 08:23:56;;;;;;;22.93;12.77;;;;;;;-5.11;73.19;95202.56;1750998;81;21383;-66
2022/12/14 08:26:24;;;;;;;13.57;7.63;;;;;;;-5.15;73.32;95183.56;1751173;82;21496;-68
2022/12/14 08:28:53;;;;;;;14.97;8.33;;;;;;;-5.18;72.93;95185.16;1747958;81;20973;-66
2022/12/14 08:31:23;;;;;;;11.57;6.90;;;;;;;-5.20;72.87;95188.95;1739439;82;21538;-66
2022/12/14 08:33:52;;;;;;;16.03;9.13;;;;;;;-5.08;73.45;95186.81;1739378;82;21073;-67
2022/12/14 08:36:26;;;;;;;18.10;8.43;;;;;;;-5.00;73.39;95170.34;1739335;82;21183;-63
2022/12/14 08:38:59;;;;;;;18.00;10.47;;;;;;;-4.90;73.61;95171.53;1739439;82;21068;-66
2022/12/14 08:41:28;;;;;;;44.08;24.47;;;;;;;-4.77;73.54;95176.67;1739822;82;21066;-73
2022/12/14 08:43:58;;;;;;;366.53;187.70;;;;;;;-4.77;73.32;95165.95;1739510;82;21555;-65
2022/12/14 08:46:28;;;;;;;17.90;9.60;;;;;;;-4.71;73.55;95168.75;1739588;82;20990;-67
2022/12/14 08:48:55;;;;;;;15.77;9.70;;;;;;;-4.62;73.63;95163.88;1786004;79;21710;-66
2022/12/14 08:51:25;;;;;;;13.13;7.67;;;;;;;-4.55;73.33;95152.09;1786464;80;20967;-65
2022/12/14 08:53:52;;;;;;;16.10;8.73;;;;;;;-4.60;72.71;95157.50;1786198;80;21161;-66
2022/12/14 08:56:23;;;;;;;13.73;7.80;;;;;;;-4.55;73.54;95148.64;1786346;80;21050;-67
2022/12/14 08:58:50;;;;;;;13.30;7.03;;;;;;;-4.65;72.61;95150.91;1786261;80;21063;-66
2022/12/14 09:01:22;;;;;;;21.27;10.80;;;;;;;-4.71;72.69;95140.44;1786622;80;21571;-67
2022/12/14 09:03:49;;;;;;;38.13;17.27;;;;;;;-4.79;72.79;95134.14;1747942;80;21182;-65
2022/12/14 09:06:20;;;;;;;36.27;23.37;;;;;;;-4.73;73.43;95141.21;1735580;82;21055;-69
2022/12/14 09:08:47;;;;;;;21.83;11.63;;;;;;;-4.60;73.96;95122.75;1735353;82;21180;-68
2022/12/14 09:11:16;;;;;;;31.60;12.27;;;;;;;-4.46;73.90;95114.15;1735480;82;21035;-67
2022/12/14 09:13:43;;;;;;;16.13;8.87;;;;;;;-4.55;72.88;95123.77;1735537;82;21008;-66
2022/12/14 09:16:19;;;;;;;22.80;14.80;;;;;;;-4.58;73.56;95123.26;1735872;83;21051;-64
2022/12/14 09:18:48;;;;;;;16.67;10.40;;;;;;;-4.54;73.54;95117.77;1735171;83;21029;-66
2022/12/14 09:21:16;;;;;;;16.73;9.23;;;;;;;-4.46;73.59;95109.00;1735529;83;21639;-65
2022/12/14 09:23:44;;;;;;;18.53;11.67;;;;;;;-4.40;73.09;95110.07;1735171;83;21115;-66
2022/12/14 09:26:16;;;;;;;18.17;11.60;;;;;;;-4.34;73.19;95105.52;1735099;83;21581;-66
2022/12/14 09:28:53;;;;;;;20.60;11.50;;;;;;;-4.24;73.52;95103.67;1735642;82;21067;-66
2022/12/14 09:31:23;;;;;;;16.27;9.00;;;;;;;-4.07;73.82;95091.30;1735231;83;21605;-67
2022/12/14 09:33:49;;;;;;;14.37;8.07;;;;;;;-4.00;72.85;95093.22;1735734;83;21110;-66
2022/12/14 09:36:20;;;;;;;15.47;9.40;;;;;;;-3.89;72.70;95095.23;1735984;82;21036;-66
2022/12/14 09:38:53;;;;;;;14.43;8.03;;;;;;;-3.76;72.75;95079.27;1735517;82;21565;-67
2022/12/14 09:41:30;;;;;;;15.60;8.37;;;;;;;-3.62;72.73;95077.08;1735641;83;21127;-67
2022/12/14 09:44:14;;;;;;;15.47;8.90;;;;;;;-3.55;71.89;95061.81;1736317;83;21119;-67
2022/12/14 09:47:33;;;;;;;16.12;8.60;;;;;;;-3.50;70.98;95061.94;1736532;82;21033;-66
2022/12/14 09:50:08;;;;;;;15.20;9.10;;;;;;;-3.43;71.21;95065.53;1736439;82;21040;-66
2022/12/14 09:52:55;;;;;;;16.93;9.17;;;;;;;-3.36;71.14;95068.73;1735828;83;21535;-65
2022/12/14 09:55:39;;;;;;;17.37;9.00;;;;;;;-3.27;71.65;95063.39;1736098;82;21083;-66
2022/12/14 09:58:25;;;;;;;13.63;9.00;;;;;;;-3.04;71.69;95066.97;1744287;82;21063;-67
2022/12/14 10:01:22;;;;;;;17.60;9.77;;;;;;;-3.01;70.22;95062.30;1744484;82;21534;-66
2022/12/14 10:04:12;;;;;;;16.03;10.17;;;;;;;-3.01;70.71;95054.13;1762454;80;21050;-67
2022/12/14 10:07:04;;;;;;;15.57;9.00;;;;;;;-2.88;70.41;95057.88;1787239;80;21075;-72
2022/12/14 10:09:38;;;;;;;17.67;9.27;;;;;;;-2.84;69.28;95054.13;1787701;79;20999;-71
2022/12/14 10:12:57;;;;;;;16.93;9.43;;;;;;;-2.85;69.31;95054.97;1785846;79;21011;-68
2022/12/14 10:15:35;;;;;;;19.43;10.07;;;;;;;-2.83;69.23;95044.66;1787420;80;21042;-70
2022/12/14 10:18:30;;;;;;;66.37;30.20;;;;;;;-2.75;69.33;95031.93;1787885;80;20987;-70
2022/12/14 10:21:14;;;;;;;17.10;9.50;;;;;;;-2.73;69.29;95028.97;1766814;80;21101;-70
2022/12/14 10:35:17;;;;;;;19.17;11.73;;;;;;;-1.56;67.82;95003.83;1860199;77;23033;-69
2022/12/14 10:38:06;;;;;;;15.50;9.60;;;;;;;-1.81;67.55;94998.61;1831962;78;21007;-69
2022/12/14 10:40:34;;;;;;;19.50;10.90;;;;;;;-2.01;67.12;94995.64;1827875;78;21027;-69
2022/12/14 10:43:35;;;;;;;19.90;10.77;;;;;;;-2.17;68.06;95002.19;1830715;78;21031;-69
2022/12/14 10:46:25;;;;;;;18.00;10.67;;;;;;;-2.18;67.99;95000.03;1830453;78;20972;-69
2022/12/14 10:49:05;;;;;;;14.30;9.30;;;;;;;-2.19;68.24;95000.02;1831184;78;21058;-69
2022/12/14 10:51:45;;;;;;;46.60;37.37;;;;;;;-2.33;67.17;94999.72;1831078;78;21035;-69
2022/12/14 10:54:52;;;;;;;19.53;11.80;;;;;;;-2.36;67.31;95006.55;1832226;78;20995;-69
2022/12/14 10:57:25;;;;;;;32.10;17.70;;;;;;;-2.46;67.88;95000.31;1832395;78;20948;-69
2022/12/14 10:59:53;;;;;;;28.98;14.73;;;;;;;-2.35;68.53;94986.32;1831186;78;21043;-70
2022/12/14 11:02:23;;;;;;;34.70;23.30;;;;;;;-2.30;68.53;94980.83;1831377;78;21027;-70
2022/12/14 11:05:03;;;;;;;24.10;13.40;;;;;;;-2.26;68.21;94977.48;1831900;78;21097;-69
2022/12/14 11:07:35;;;;;;;26.43;17.97;;;;;;;-2.27;68.27;94984.36;1800296;78;21031;-70
2022/12/14 11:10:22;;;;;;;24.60;15.43;;;;;;;-2.38;67.87;94983.68;1832003;78;21489;-69
2022/12/14 11:13:19;;;;;;;21.60;11.30;;;;;;;-2.38;68.24;94981.09;1832223;78;20972;-69
2022/12/14 11:15:51;;;;;;;19.40;11.33;;;;;;;-2.33;67.85;94979.48;1832337;78;21026;-69
2022/12/14 11:18:23;;;;;;;30.73;14.63;;;;;;;-2.29;68.52;94974.41;1832467;78;21512;-69
2022/12/14 11:20:55;;;;;;;25.47;14.27;;;;;;;-2.33;67.67;94970.01;1800083;78;20992;-69
2022/12/14 11:23:44;;;;;;;42.23;19.83;;;;;;;-2.29;68.27;94963.21;1832315;78;20984;-69
2022/12/14 11:26:15;;;;;;;51.80;21.53;;;;;;;-2.30;68.36;94956.28;1832176;78;20999;-69
2022/12/14 11:28:51;;;;;;;38.20;18.87;;;;;;;-2.34;68.39;94951.48;1832575;78;21438;-69
2022/12/14 11:31:38;;;;;;;33.57;18.67;;;;;;;-2.41;68.38;94953.06;1832161;78;21014;-69
2022/12/14 11:34:21;;;;;;;60.40;24.60;;;;;;;-2.38;68.89;94957.42;1833630;78;21003;-69
2022/12/14 11:36:48;;;;;;;98.95;39.23;;;;;;;-2.31;69.19;94956.70;1835195;78;21016;-69
2022/12/14 11:39:22;;;;;;;36.83;19.03;;;;;;;-2.16;69.78;94957.86;1835189;78;21508;-69
2022/12/14 11:42:00;;;;;;;26.07;12.37;;;;;;;-2.13;69.62;94959.20;1835373;78;21043;-69
2022/12/14 11:44:35;;;;;;;77.77;27.77;;;;;;;-2.05;69.61;94951.17;1834934;78;21038;-69
2022/12/14 11:47:13;;;;;;;44.27;20.70;;;;;;;-2.05;69.29;94948.16;1835284;78;20956;-69
2022/12/14 11:49:45;;;;;;;53.97;23.63;;;;;;;-1.90;69.53;94937.23;1801224;78;21039;-69
2022/12/14 11:52:17;;;;;;;29.67;15.07;;;;;;;-1.84;69.41;94935.18;1835460;78;21019;-69
2022/12/14 11:54:57;;;;;;;44.07;19.10;;;;;;;-1.77;68.84;94933.16;1835106;78;21012;-69
2022/12/14 11:57:31;;;;;;;41.57;21.47;;;;;;;-1.79;68.42;94927.08;1835426;78;21489;-69
2022/12/14 12:00:15;;;;;;;37.83;17.37;;;;;;;-1.65;68.42;94937.25;1835177;78;21012;-69
2022/12/14 12:03:02;;;;;;;19.23;10.80;;;;;;;-1.59;68.61;94941.26;1809023;78;21019;-69
2022/12/14 12:05:32;;;;;;;43.10;20.50;;;;;;;-1.52;67.76;94933.16;1835411;78;21007;-69
2022/12/14 12:08:06;;;;;;;34.83;18.33;;;;;;;-1.29;68.35;94933.53;1835098;78;21056;-69
2022/12/14 12:10:43;;;;;;;35.70;18.57;;;;;;;-1.20;67.52;94929.80;1835265;78;21039;-69
2022/12/14 12:13:31;;;;;;;22.93;13.83;;;;;;;-1.12;67.81;94928.62;1835358;78;20983;-69
2022/12/14 12:16:14;;;;;;;38.83;21.07;;;;;;;-1.14;67.27;94935.06;1833594;78;20988;-69
2022/12/14 12:18:52;;;;;;;33.15;18.45;;;;;;;-1.14;67.36;94930.31;1835293;78;21019;-69
2022/12/14 12:21:31;;;;;;;26.87;13.40;;;;;;;-1.09;67.11;94927.38;1835270;78;21003;-69
2022/12/14 12:24:07;;;;;;;27.33;16.53;;;;;;;-1.08;67.44;94923.95;1835088;78;21000;-69